Time;durP1;ratioP1;P1;durP2;ratioP2;P2;SDS_P1;SDS_P2;PMS_P1;PMS_P2;Temp;Humidity;BMP_temperature;BMP_pressure;BME280_temperature;BME280_humidity;BME280_pressure;Samples;Min_cycle;Max_cycle;Signal;HPM_P1;HPM_P2
2021/12/19 00:00:09;;;;;;;6.72;2.28;;;;;;;7.76;100.00;102193.59;5255042;28;20213;-83
2021/12/19 00:10:34;;;;;;;5.22;2.40;;;;;;;7.78;100.00;102165.81;5270202;28;20119;-81
2021/12/19 00:13:04;;;;;;;6.55;2.20;;;;;;;7.71;100.00;102169.28;5262249;28;20098;-77
2021/12/19 00:15:35;;;;;;;5.57;2.40;;;;;;;7.77;100.00;102165.81;5267282;28;20093;-85
2021/12/19 00:18:05;;;;;;;5.65;2.35;;;;;;;7.81;100.00;102171.03;5264454;28;20028;-81
2021/12/19 00:20:35;;;;;;;10.80;2.70;;;;;;;7.69;100.00;102170.16;5262773;28;20046;-77
2021/12/19 00:23:07;;;;;;;7.40;2.80;;;;;;;7.78;100.00;102170.16;5269813;28;20492;-76
2021/12/19 00:25:38;;;;;;;4.90;2.75;;;;;;;7.75;100.00;102155.44;5272714;28;20576;-79
2021/12/19 00:28:08;;;;;;;7.55;3.03;;;;;;;7.79;100.00;102159.75;5274832;28;20122;-81
2021/12/19 00:30:38;;;;;;;10.60;3.63;;;;;;;7.82;100.00;102159.75;5273171;28;20081;-79
2021/12/19 00:33:09;;;;;;;8.13;4.55;;;;;;;7.72;100.00;102159.75;5275393;28;20104;-78
2021/12/19 00:35:39;;;;;;;8.65;3.95;;;;;;;7.67;100.00;102157.13;5274404;28;20125;-82
2021/12/19 00:38:10;;;;;;;11.45;4.90;;;;;;;7.77;100.00;102160.59;5269320;28;20031;-79
2021/12/19 00:40:42;;;;;;;9.43;4.85;;;;;;;7.67;100.00;102149.31;5269991;28;20149;-86
2021/12/19 00:43:23;;;;;;;8.75;4.60;;;;;;;7.81;100.00;102150.22;5272942;28;20110;-78
2021/12/19 00:45:54;;;;;;;9.55;5.10;;;;;;;7.73;100.00;102146.72;5274745;28;20276;-77
2021/12/19 00:48:24;;;;;;;9.45;4.93;;;;;;;7.73;100.00;102141.50;5280959;28;20023;-83
2021/12/19 00:50:55;;;;;;;11.25;5.18;;;;;;;7.72;100.00;102139.78;5276024;28;20024;-80
2021/12/19 00:53:26;;;;;;;8.18;4.55;;;;;;;7.68;100.00;102132.84;5271188;28;20393;-81
2021/12/19 00:55:56;;;;;;;9.07;4.18;;;;;;;7.62;100.00;102132.84;5274937;28;20055;-80
2021/12/19 00:58:27;;;;;;;8.50;3.60;;;;;;;7.56;100.00;102126.75;5271493;28;20105;-76
2021/12/19 01:00:57;;;;;;;7.80;3.20;;;;;;;7.62;100.00;102126.75;5279300;28;20019;-76
2021/12/19 01:03:28;;;;;;;5.95;2.97;;;;;;;7.62;100.00;102131.97;5271769;28;20030;-79
2021/12/19 01:05:59;;;;;;;6.10;3.03;;;;;;;7.64;100.00;102125.91;5275130;28;20077;-77
2021/12/19 01:08:29;;;;;;;6.78;2.78;;;;;;;7.54;100.00;102118.09;5272384;28;20031;-78
2021/12/19 01:10:59;;;;;;;4.18;2.30;;;;;;;7.48;100.00;102120.66;5271265;28;20020;-77
2021/12/19 01:13:30;;;;;;;5.15;2.30;;;;;;;7.44;100.00;102112.00;5275504;28;20396;-79
2021/12/19 01:16:01;;;;;;;4.50;2.00;;;;;;;7.43;100.00;102112.88;5275260;28;20036;-83
2021/12/19 01:18:32;;;;;;;3.92;2.05;;;;;;;7.44;100.00;102112.00;5277285;28;20381;-83
2021/12/19 01:21:03;;;;;;;5.88;2.30;;;;;;;7.41;100.00;102116.34;5275200;28;20035;-79
2021/12/19 01:23:33;;;;;;;5.95;2.70;;;;;;;7.43;100.00;102112.88;5270577;28;20028;-79
2021/12/19 01:26:03;;;;;;;5.03;2.40;;;;;;;7.51;100.00;102112.91;5259092;28;20027;-79
2021/12/19 01:28:34;;;;;;;4.55;2.40;;;;;;;7.44;100.00;102104.22;5270702;28;20019;-77
2021/12/19 01:31:05;;;;;;;5.95;2.80;;;;;;;7.44;100.00;102108.53;5267898;28;20012;-83
2021/12/19 01:33:36;;;;;;;3.95;2.33;;;;;;;7.42;100.00;102105.94;5275652;28;20473;-80
2021/12/19 01:36:06;;;;;;;7.65;3.40;;;;;;;7.43;100.00;102099.88;5275118;28;20023;-83
2021/12/19 01:38:37;;;;;;;7.85;3.33;;;;;;;7.43;100.00;102084.28;5274536;28;20527;-80
2021/12/19 01:41:07;;;;;;;5.35;3.42;;;;;;;7.41;100.00;102086.00;5279378;28;20490;-82
2021/12/19 01:43:38;;;;;;;6.43;3.28;;;;;;;7.41;100.00;102080.81;5274608;28;20058;-77
2021/12/19 01:46:08;;;;;;;7.15;3.42;;;;;;;7.38;100.00;102080.78;5278869;28;20038;-76
2021/12/19 01:48:39;;;;;;;8.25;3.78;;;;;;;7.40;100.00;102080.78;5277025;28;20719;-76
2021/12/19 01:51:09;;;;;;;8.73;3.33;;;;;;;7.39;100.00;102066.06;5278096;28;20058;-81
2021/12/19 01:53:40;;;;;;;6.68;3.90;;;;;;;7.41;100.00;102070.41;5283099;28;20446;-81
2021/12/19 01:56:10;;;;;;;6.60;3.72;;;;;;;7.42;100.00;102066.06;5276402;28;20300;-81
2021/12/19 01:58:42;;;;;;;9.00;4.70;;;;;;;7.50;100.00;102062.59;5274292;28;20023;-85
2021/12/19 02:01:12;;;;;;;10.70;5.43;;;;;;;7.44;100.00;102065.19;5279208;28;20028;-78
2021/12/19 02:03:42;;;;;;;9.95;5.72;;;;;;;7.42;100.00;102066.94;5276882;28;20046;-80
2021/12/19 02:06:13;;;;;;;9.68;5.93;;;;;;;7.35;100.00;102070.38;5278291;28;20039;-80
2021/12/19 02:08:44;;;;;;;9.45;6.00;;;;;;;7.49;100.00;102068.66;5276118;28;20098;-78
2021/12/19 02:11:15;;;;;;;8.25;5.55;;;;;;;7.36;100.00;102055.66;5281255;28;20028;-77
2021/12/19 02:13:45;;;;;;;7.97;5.43;;;;;;;7.36;100.00;102053.03;5278275;28;20491;-76
2021/12/19 02:16:15;;;;;;;8.43;5.18;;;;;;;7.31;100.00;102055.63;5281080;28;20049;-78
2021/12/19 02:18:46;;;;;;;7.95;4.72;;;;;;;7.30;100.00;102056.50;5278728;28;20107;-80
2021/12/19 02:21:16;;;;;;;8.18;5.15;;;;;;;7.26;100.00;102059.09;5279082;28;20111;-78
2021/12/19 02:23:47;;;;;;;7.70;5.07;;;;;;;7.30;100.00;102048.69;5272022;28;20035;-80
2021/12/19 02:26:17;;;;;;;10.75;5.07;;;;;;;7.29;100.00;102039.16;5280671;28;20062;-78
2021/12/19 02:28:48;;;;;;;7.75;4.60;;;;;;;7.34;100.00;102034.81;5276094;28;20458;-76
2021/12/19 02:31:20;;;;;;;8.73;5.05;;;;;;;7.35;100.00;102031.34;5277260;28;20032;-81
2021/12/19 02:36:55;;;;;;;8.57;5.18;;;;;;;7.34;100.00;102037.44;5273270;28;20584;-81
2021/12/19 02:40:04;;;;;;;8.35;4.53;;;;;;;7.37;100.00;102024.44;5274711;28;20162;-76
2021/12/19 02:48:10;;;;;;;8.73;4.75;;;;;;;7.25;100.00;102004.50;5282806;28;20084;-82
2021/12/19 02:50:48;;;;;;;10.30;4.47;;;;;;;7.37;100.00;102005.38;5272661;28;20036;-81
2021/12/19 02:53:34;;;;;;;12.73;4.95;;;;;;;7.35;100.00;102002.75;5276119;28;20123;-78
2021/12/19 02:56:10;;;;;;;10.63;5.28;;;;;;;7.37;100.00;101998.41;5253525;28;20477;-83
2021/12/19 02:58:43;;;;;;;9.15;4.70;;;;;;;7.41;100.00;101992.38;5275272;28;20028;-81
2021/12/19 03:01:17;;;;;;;9.27;4.47;;;;;;;7.36;100.00;101986.28;5280553;28;20062;-78
2021/12/19 03:03:47;;;;;;;7.60;4.95;;;;;;;7.35;100.00;102000.16;5279200;28;20035;-82
2021/12/19 03:06:17;;;;;;;8.30;4.32;;;;;;;7.32;100.00;101983.72;5274327;28;20039;-83
2021/12/19 03:08:51;;;;;;;10.02;4.65;;;;;;;7.41;100.00;101981.97;5267656;28;20019;-81
2021/12/19 03:19:41;;;;;;;9.60;5.00;;;;;;;7.40;100.00;101953.34;5275368;28;20042;-76
2021/12/19 03:22:12;;;;;;;9.45;5.40;;;;;;;7.35;100.00;101950.75;5275568;28;20031;-80
2021/12/19 03:24:42;;;;;;;10.07;5.78;;;;;;;7.32;100.00;101949.91;5277250;28;20027;-80
2021/12/19 03:27:12;;;;;;;10.20;5.82;;;;;;;7.31;100.00;101951.63;5274391;28;20036;-80
2021/12/19 03:29:45;;;;;;;9.57;6.22;;;;;;;7.34;100.00;101945.56;5273326;28;20028;-79
2021/12/19 03:32:15;;;;;;;12.80;6.10;;;;;;;7.35;100.00;101940.34;5277500;28;20503;-81
2021/12/19 03:34:45;;;;;;;13.27;6.65;;;;;;;7.34;100.00;101951.63;5279126;28;20032;-80
2021/12/19 03:37:16;;;;;;;13.07;6.25;;;;;;;7.30;100.00;101942.09;5268988;28;20118;-78
2021/12/19 03:40:35;;;;;;;8.43;5.43;;;;;;;7.34;100.00;101950.75;5282952;28;20015;-80
2021/12/19 03:42:46;;;;;;;10.05;5.90;;;;;;;7.34;100.00;101946.41;5265718;28;20031;-80
2021/12/19 03:45:19;;;;;;;9.73;5.60;;;;;;;7.38;100.00;101952.50;5272165;28;20126;-80
2021/12/19 03:47:51;;;;;;;11.63;5.38;;;;;;;7.41;100.00;101953.38;5268004;28;20141;-77
2021/12/19 03:50:23;;;;;;;8.60;5.28;;;;;;;7.40;100.00;101959.44;5277219;28;20101;-76
2021/12/19 03:52:54;;;;;;;9.60;5.38;;;;;;;7.43;100.00;101954.22;5268666;28;20020;-77
2021/12/19 03:55:25;;;;;;;11.20;5.70;;;;;;;7.38;100.00;101961.13;5276678;28;20422;-83
2021/12/19 03:57:58;;;;;;;12.15;5.70;;;;;;;7.44;100.00;101953.34;5268621;28;20028;-77
2021/12/19 04:00:30;;;;;;;12.70;6.03;;;;;;;7.46;100.00;101954.22;5281098;28;20034;-81
2021/12/19 04:03:05;;;;;;;9.90;5.35;;;;;;;7.45;100.00;101944.69;5268474;28;20028;-76
2021/12/19 04:05:38;;;;;;;10.95;5.85;;;;;;;7.49;100.00;101950.75;5273320;28;20024;-78
2021/12/19 04:08:09;;;;;;;9.85;5.97;;;;;;;7.50;100.00;101949.88;5272210;28;20076;-76
2021/12/19 04:10:40;;;;;;;11.60;5.78;;;;;;;7.43;100.00;101936.00;5276198;28;20027;-80
2021/12/19 04:13:10;;;;;;;7.88;5.47;;;;;;;7.48;100.00;101946.38;5272177;28;20206;-78
2021/12/19 04:15:41;;;;;;;9.52;5.88;;;;;;;7.45;100.00;101944.69;5277158;28;20164;-80
2021/12/19 04:18:11;;;;;;;11.23;6.22;;;;;;;7.50;100.00;101940.34;5274574;28;20481;-82
2021/12/19 04:20:42;;;;;;;9.07;5.50;;;;;;;7.44;100.00;101916.06;5273862;28;20020;-81
2021/12/19 04:23:13;;;;;;;13.65;5.90;;;;;;;7.42;100.00;101915.19;5280775;28;20048;-76
2021/12/19 04:25:44;;;;;;;11.82;6.50;;;;;;;7.46;100.00;101923.00;5272174;28;20030;-80
2021/12/19 04:28:14;;;;;;;15.43;6.63;;;;;;;7.42;100.00;101910.88;5271976;28;20496;-80
2021/12/19 04:30:44;;;;;;;11.05;5.80;;;;;;;7.39;100.00;101913.47;5276657;28;20032;-79
2021/12/19 04:33:15;;;;;;;12.00;6.45;;;;;;;7.44;100.00;101918.66;5273709;28;20027;-77
2021/12/19 04:35:46;;;;;;;12.77;5.78;;;;;;;7.50;100.00;101926.47;5274235;28;20114;-76
2021/12/19 04:55:21;;;;;;;10.70;5.45;;;;;;;7.50;100.00;101890.91;5276115;28;20401;-80
2021/12/19 04:58:17;;;;;;;10.55;4.43;;;;;;;7.46;100.00;101877.91;5266192;28;20493;-77
2021/12/19 05:16:40;;;;;;;10.43;4.95;;;;;;;7.57;100.00;101863.16;5278156;28;20016;-78
2021/12/19 05:21:53;;;;;;;8.65;4.72;;;;;;;7.55;100.00;101852.75;5270009;28;20128;-83
2021/12/19 05:27:08;;;;;;;9.52;4.55;;;;;;;7.57;100.00;101850.16;5276812;28;20051;-78
2021/12/19 05:29:39;;;;;;;10.23;4.97;;;;;;;7.67;100.00;101844.06;5268748;28;20085;-78
2021/12/19 05:32:10;;;;;;;9.20;4.10;;;;;;;7.64;100.00;101836.22;5274236;28;20477;-78
2021/12/19 05:34:40;;;;;;;8.63;3.63;;;;;;;7.63;100.00;101827.56;5272794;28;20246;-82
2021/12/19 05:45:37;;;;;;;6.68;2.90;;;;;;;7.56;100.00;101844.06;5268699;28;20059;-80
2021/12/19 05:48:07;;;;;;;10.02;3.20;;;;;;;7.50;100.00;101851.91;5270683;28;20020;-80
2021/12/19 05:50:39;;;;;;;8.80;2.85;;;;;;;7.55;100.00;101839.72;5274408;28;20024;-79
2021/12/19 05:53:10;;;;;;;5.63;1.90;;;;;;;7.57;100.00;101850.16;5270551;28;20024;-78
2021/12/19 05:55:41;;;;;;;4.95;1.90;;;;;;;7.60;100.00;101853.63;5264176;28;20055;-81
2021/12/19 05:58:11;;;;;;;6.00;2.40;;;;;;;7.57;100.00;101843.22;5274879;28;20068;-76
2021/12/19 06:00:42;;;;;;;6.55;1.90;;;;;;;7.56;100.00;101846.66;5271093;28;20027;-78
2021/12/19 06:03:12;;;;;;;8.10;2.20;;;;;;;7.59;100.00;101844.06;5268561;28;20438;-77
2021/12/19 06:05:42;;;;;;;5.45;2.33;;;;;;;7.58;100.00;101847.56;5272705;28;20521;-83
2021/12/19 06:08:13;;;;;;;4.38;2.17;;;;;;;7.60;100.00;101827.59;5275493;28;20038;-79
2021/12/19 06:10:43;;;;;;;4.75;2.00;;;;;;;7.62;100.00;101841.47;5275327;28;20031;-83
2021/12/19 06:13:13;;;;;;;6.30;2.47;;;;;;;7.62;100.00;101835.38;5275278;28;20023;-79
2021/12/19 06:15:44;;;;;;;6.25;2.47;;;;;;;7.58;100.00;101834.53;5275091;28;20028;-76
2021/12/19 06:18:14;;;;;;;8.10;2.40;;;;;;;7.60;100.00;101843.19;5271077;28;20059;-78
2021/12/19 06:20:45;;;;;;;6.88;2.40;;;;;;;7.58;100.00;101844.06;5278134;28;20023;-77
2021/12/19 06:23:16;;;;;;;8.30;2.55;;;;;;;7.55;100.00;101844.94;5277389;28;20127;-80
2021/12/19 06:25:46;;;;;;;8.88;3.00;;;;;;;7.49;100.00;101834.56;5275672;28;20051;-78
2021/12/19 06:28:18;;;;;;;9.00;3.33;;;;;;;7.53;100.00;101832.81;5276887;28;20032;-79
2021/12/19 06:30:48;;;;;;;8.48;3.35;;;;;;;7.51;100.00;101824.16;5275563;28;20087;-79
2021/12/19 06:33:19;;;;;;;8.88;3.42;;;;;;;7.57;100.00;101821.53;5277358;28;20032;-77
2021/12/19 06:35:49;;;;;;;7.45;3.45;;;;;;;7.55;100.00;101823.28;5276000;28;20036;-78
2021/12/19 06:38:20;;;;;;;8.15;3.90;;;;;;;7.50;100.00;101809.44;5273871;28;20028;-78
2021/12/19 06:40:50;;;;;;;10.27;4.03;;;;;;;7.54;100.00;101814.59;5276681;28;20027;-78
2021/12/19 06:43:20;;;;;;;9.90;3.60;;;;;;;7.55;100.00;101807.66;5274992;28;20116;-78
2021/12/19 06:45:51;;;;;;;9.40;3.70;;;;;;;7.51;100.00;101805.94;5275767;28;20028;-78
2021/12/19 06:48:24;;;;;;;10.00;3.58;;;;;;;7.54;100.00;101804.19;5274994;28;20059;-78
2021/12/19 06:50:54;;;;;;;8.25;3.97;;;;;;;7.57;100.00;101792.91;5277380;28;20500;-78
2021/12/19 06:53:25;;;;;;;11.18;3.90;;;;;;;7.58;100.00;101785.13;5274223;28;20122;-78
2021/12/19 06:55:56;;;;;;;10.32;4.10;;;;;;;7.58;100.00;101785.13;5277620;28;20477;-80
2021/12/19 06:58:27;;;;;;;13.05;4.35;;;;;;;7.59;100.00;101792.03;5278791;28;20028;-81
2021/12/19 07:00:57;;;;;;;8.98;4.28;;;;;;;7.50;100.00;101789.47;5273726;28;20024;-81
2021/12/19 07:03:27;;;;;;;8.20;4.00;;;;;;;7.59;100.00;101781.66;5282326;28;20028;-81
2021/12/19 07:05:57;;;;;;;8.23;4.18;;;;;;;7.60;100.00;101783.38;5276375;28;20551;-80
2021/12/19 07:08:28;;;;;;;11.32;5.05;;;;;;;7.63;100.00;101782.47;5274521;28;20028;-78
2021/12/19 07:10:59;;;;;;;13.07;4.28;;;;;;;7.61;100.00;101772.09;5276739;28;20028;-80
2021/12/19 07:13:29;;;;;;;12.80;4.25;;;;;;;7.61;100.00;101774.69;5281912;28;20038;-80
2021/12/19 07:15:59;;;;;;;9.52;3.95;;;;;;;7.60;100.00;101785.09;5270064;28;20047;-81
2021/12/19 07:18:30;;;;;;;10.63;4.32;;;;;;;7.64;100.00;101787.69;5277503;28;20031;-81
2021/12/19 07:21:00;;;;;;;8.50;4.07;;;;;;;7.60;100.00;101783.38;5269274;28;20032;-80
2021/12/19 07:23:31;;;;;;;12.07;4.25;;;;;;;7.56;100.00;101768.63;5264660;28;20024;-76
2021/12/19 07:26:02;;;;;;;12.48;5.00;;;;;;;7.59;100.00;101781.66;5277423;28;20085;-78
2021/12/19 07:28:32;;;;;;;14.05;4.93;;;;;;;7.60;100.00;101770.38;5273613;28;20032;-77
2021/12/19 07:31:03;;;;;;;12.07;4.80;;;;;;;7.61;100.00;101769.50;5272146;28;20020;-76
2021/12/19 07:33:33;;;;;;;11.82;4.85;;;;;;;7.59;100.00;101762.56;5277889;28;20019;-77
2021/12/19 07:36:04;;;;;;;11.85;4.30;;;;;;;7.63;100.00;101757.34;5277465;28;20096;-83
2021/12/19 07:38:40;;;;;;;12.60;5.10;;;;;;;7.71;100.00;101768.56;5272706;28;20020;-81
2021/12/19 07:41:11;;;;;;;11.45;4.55;;;;;;;7.67;100.00;101768.59;5272147;28;20038;-76
2021/12/19 07:43:41;;;;;;;14.88;5.05;;;;;;;7.64;100.00;101761.66;5274892;27;20023;-78
2021/12/19 07:46:11;;;;;;;13.07;4.15;;;;;;;7.64;100.00;101758.19;5275148;28;20083;-78
2021/12/19 07:48:42;;;;;;;16.80;5.32;;;;;;;7.63;100.00;101754.72;5274538;28;20016;-78
2021/12/19 07:51:12;;;;;;;12.55;4.72;;;;;;;7.59;100.00;101753.03;5275246;28;20032;-81
2021/12/19 07:53:43;;;;;;;10.52;4.22;;;;;;;7.59;100.00;101758.22;5269867;28;20024;-78
2021/12/19 07:56:13;;;;;;;11.13;4.40;;;;;;;7.56;100.00;101763.41;5275332;28;20389;-79
2021/12/19 07:58:43;;;;;;;11.90;3.85;;;;;;;7.57;100.00;101744.38;5270102;28;20532;-78
2021/12/19 08:01:13;;;;;;;10.65;4.05;;;;;;;7.61;100.00;101756.47;5275858;28;20027;-79
2021/12/19 08:03:44;;;;;;;11.10;3.95;;;;;;;7.61;100.00;101746.06;5274487;27;20516;-78
2021/12/19 08:06:14;;;;;;;9.70;3.78;;;;;;;7.65;100.00;101746.91;5272301;28;20056;-76
2021/12/19 08:08:50;;;;;;;10.57;4.00;;;;;;;7.60;100.00;101748.66;5274027;27;20028;-79
2021/12/19 08:14:14;;;;;;;8.52;3.72;;;;;;;7.64;100.00;101743.44;5261822;28;20042;-78
2021/12/19 08:16:46;;;;;;;15.50;3.92;;;;;;;7.69;100.00;101743.44;5269311;28;20032;-78
2021/12/19 08:19:16;;;;;;;12.20;4.32;;;;;;;7.59;100.00;101737.41;5269103;28;20042;-76
2021/12/19 08:21:47;;;;;;;10.77;4.28;;;;;;;7.61;100.00;101737.38;5276958;28;20024;-78
2021/12/19 08:24:17;;;;;;;12.10;4.28;;;;;;;7.62;100.00;101741.72;5270410;28;20028;-77
2021/12/19 08:26:47;;;;;;;12.85;4.72;;;;;;;7.59;100.00;101742.63;5269629;28;20154;-78
2021/12/19 08:29:18;;;;;;;12.70;4.63;;;;;;;7.50;100.00;101734.84;5273044;28;20024;-80
2021/12/19 08:31:48;;;;;;;16.45;5.30;;;;;;;7.58;100.00;101738.28;5272936;28;20122;-80
2021/12/19 08:34:19;;;;;;;10.70;4.82;;;;;;;7.66;100.00;101736.50;5274216;28;20035;-80
2021/12/19 08:36:49;;;;;;;12.50;5.20;;;;;;;7.62;100.00;101728.72;5274071;28;20174;-80
2021/12/19 08:39:20;;;;;;;13.30;4.95;;;;;;;7.66;100.00;101731.31;5276926;28;20439;-80
2021/12/19 08:41:51;;;;;;;14.52;4.90;;;;;;;7.62;100.00;101733.91;5269033;28;20055;-77
2021/12/19 08:44:21;;;;;;;15.80;4.82;;;;;;;7.59;100.00;101737.41;5270372;28;20019;-80
2021/12/19 08:46:53;;;;;;;13.70;4.57;;;;;;;7.64;100.00;101738.25;5276870;28;20024;-79
2021/12/19 08:49:23;;;;;;;10.52;4.10;;;;;;;7.62;100.00;101733.91;5272107;28;20392;-80
2021/12/19 08:51:54;;;;;;;10.32;4.10;;;;;;;7.59;100.00;101729.63;5269426;28;20028;-80
2021/12/19 08:54:24;;;;;;;6.97;3.35;;;;;;;7.65;100.00;101726.97;5267130;28;20088;-80
2021/12/19 08:56:55;;;;;;;8.75;2.80;;;;;;;7.63;100.00;101744.31;5273905;28;20031;-79
2021/12/19 08:59:29;;;;;;;8.15;2.50;;;;;;;7.60;100.00;101733.06;5270560;28;20073;-79
2021/12/19 09:02:01;;;;;;;5.55;2.45;;;;;;;7.60;100.00;101741.75;5272473;28;20512;-80
2021/12/19 09:04:32;;;;;;;6.40;2.15;;;;;;;7.60;100.00;101739.16;5268233;28;20024;-80
2021/12/19 09:07:02;;;;;;;8.48;2.70;;;;;;;7.66;100.00;101731.31;5274521;28;20020;-79
2021/12/19 09:09:32;;;;;;;9.98;3.78;;;;;;;7.65;100.00;101726.09;5272226;28;20028;-77
2021/12/19 09:12:03;;;;;;;6.38;2.30;;;;;;;7.65;100.00;101724.38;5260049;28;20024;-78
2021/12/19 09:14:33;;;;;;;9.73;2.30;;;;;;;7.65;100.00;101726.97;5268007;28;20493;-78
2021/12/19 09:17:04;;;;;;;6.75;2.28;;;;;;;7.62;100.00;101731.31;5271076;28;20056;-80
2021/12/19 09:19:34;;;;;;;5.28;2.10;;;;;;;7.57;100.00;101718.34;5267386;28;20031;-79
2021/12/19 09:22:05;;;;;;;5.15;2.28;;;;;;;7.56;100.00;101718.34;5265189;28;20151;-78
2021/12/19 09:24:35;;;;;;;8.38;2.65;;;;;;;7.60;100.00;101718.34;5263824;28;20020;-79
2021/12/19 09:27:07;;;;;;;4.60;2.45;;;;;;;7.60;100.00;101723.53;5254661;28;20024;-77
2021/12/19 09:29:37;;;;;;;7.45;2.65;;;;;;;7.61;100.00;101711.38;5255422;28;20035;-79
2021/12/19 09:32:08;;;;;;;7.03;2.67;;;;;;;7.67;100.00;101704.41;5263703;28;20098;-78
2021/12/19 09:34:38;;;;;;;7.10;2.40;;;;;;;7.68;100.00;101707.88;5268304;28;20030;-78
2021/12/19 09:37:09;;;;;;;7.43;2.10;;;;;;;7.63;100.00;101702.69;5269885;28;20059;-79
2021/12/19 09:39:39;;;;;;;7.75;2.50;;;;;;;7.58;100.00;101701.88;5268210;28;20477;-78
2021/12/19 09:42:10;;;;;;;5.57;2.10;;;;;;;7.55;100.00;101694.06;5278946;28;20741;-79
2021/12/19 09:44:41;;;;;;;5.68;2.55;;;;;;;7.60;100.00;101702.72;5273055;28;20032;-78
2021/12/19 09:47:11;;;;;;;10.85;2.90;;;;;;;7.58;100.00;101709.69;5256975;28;20035;-80
2021/12/19 09:49:41;;;;;;;6.22;2.10;;;;;;;7.50;100.00;101703.63;5267656;28;20062;-79
2021/12/19 09:52:12;;;;;;;5.18;2.35;;;;;;;7.55;100.00;101695.81;5258069;28;20025;-78
2021/12/19 09:54:42;;;;;;;6.63;2.42;;;;;;;7.50;100.00;101690.63;5257858;28;20085;-79
2021/12/19 09:57:12;;;;;;;6.82;2.60;;;;;;;7.57;100.00;101697.53;5267748;28;20027;-80
2021/12/19 09:59:43;;;;;;;6.28;2.53;;;;;;;7.59;100.00;101690.59;5264127;28;20027;-79
2021/12/19 10:02:15;;;;;;;8.80;3.05;;;;;;;7.58;100.00;101694.06;5272713;28;20078;-78
2021/12/19 10:04:46;;;;;;;7.38;2.70;;;;;;;7.57;100.00;101692.34;5277882;28;20058;-79
2021/12/19 10:07:20;;;;;;;6.30;2.40;;;;;;;7.59;100.00;101695.78;5275886;28;20028;-79
2021/12/19 10:09:54;;;;;;;4.00;2.30;;;;;;;7.65;100.00;101689.66;5262683;28;20044;-79
2021/12/19 10:15:09;;;;;;;4.78;2.63;;;;;;;7.60;100.00;101671.50;5271142;28;20142;-80
2021/12/19 10:17:40;;;;;;;5.97;2.30;;;;;;;7.53;100.00;101684.56;5266163;28;20391;-79
2021/12/19 10:20:12;;;;;;;6.13;2.20;;;;;;;7.51;100.00;101683.69;5277999;28;20051;-79
2021/12/19 10:22:46;;;;;;;5.18;2.05;;;;;;;7.50;100.00;101685.44;5278828;28;20048;-79
2021/12/19 10:25:24;;;;;;;6.97;2.63;;;;;;;7.55;100.00;101675.00;5277404;28;20040;-79
2021/12/19 10:28:12;;;;;;;16.40;6.15;;;;;;;7.61;100.00;101678.44;5265937;28;20393;-79
2021/12/19 10:30:46;;;;;;;7.13;2.88;;;;;;;7.60;100.00;101671.50;5268652;28;20028;-80
2021/12/19 10:33:23;;;;;;;5.13;1.98;;;;;;;7.62;100.00;101669.75;5276509;28;20384;-79
2021/12/19 10:35:56;;;;;;;5.85;2.65;;;;;;;7.63;100.00;101666.28;5279070;28;20062;-80
2021/12/19 10:38:36;;;;;;;4.43;2.53;;;;;;;7.65;100.00;101664.53;5266775;28;20107;-79
2021/12/19 10:41:13;;;;;;;6.55;2.58;;;;;;;7.60;100.00;101652.41;5261073;28;20188;-79
2021/12/19 10:45:29;;;;;;;11.35;4.72;;;;;;;7.69;100.00;101655.81;5271223;27;20088;-79
2021/12/19 10:47:19;;;;;;;5.60;2.60;;;;;;;7.65;100.00;101651.53;5278492;28;20496;-79
2021/12/19 10:49:49;;;;;;;7.80;2.78;;;;;;;7.62;100.00;101645.47;5266791;28;20611;-80
2021/12/19 10:52:34;;;;;;;6.95;3.15;;;;;;;7.61;100.00;101639.41;5273717;28;20118;-79
2021/12/19 10:55:09;;;;;;;10.82;4.18;;;;;;;7.58;100.00;101639.44;5271186;27;20493;-79
2021/12/19 10:57:42;;;;;;;8.80;4.27;;;;;;;7.64;100.00;101625.50;5270650;28;20039;-79
2021/12/19 11:00:25;;;;;;;8.60;4.47;;;;;;;7.69;100.00;101629.81;5274916;28;20038;-79
2021/12/19 11:02:55;;;;;;;4.45;1.80;;;;;;;7.64;100.00;101615.97;5267226;28;20373;-79
2021/12/19 11:05:39;;;;;;;6.22;2.85;;;;;;;7.69;100.00;101609.00;5276343;28;20110;-80
2021/12/19 11:08:10;;;;;;;6.40;2.00;;;;;;;7.62;100.00;101611.66;5264249;28;20042;-78
2021/12/19 11:10:41;;;;;;;17.10;7.85;;;;;;;7.70;100.00;101595.09;5264340;28;20038;-79
2021/12/19 11:13:16;;;;;;;15.00;5.75;;;;;;;7.72;100.00;101605.50;5256354;28;20320;-80
2021/12/19 11:15:49;;;;;;;8.65;3.28;;;;;;;7.64;100.00;101599.50;5271099;27;20031;-79
2021/12/19 11:18:19;;;;;;;10.88;3.95;;;;;;;7.70;100.00;101589.06;5274309;28;20512;-79
2021/12/19 11:20:50;;;;;;;6.80;3.28;;;;;;;7.65;100.00;101588.19;5268299;28;20031;-80
2021/12/19 11:23:20;;;;;;;6.30;2.67;;;;;;;7.58;100.00;101592.63;5271223;28;20457;-79
2021/12/19 11:25:51;;;;;;;6.03;2.50;;;;;;;7.57;100.00;101577.88;5272490;28;20051;-79
2021/12/19 11:28:22;;;;;;;12.05;5.13;;;;;;;7.57;100.00;101582.22;5272267;28;20130;-79
2021/12/19 11:30:53;;;;;;;7.55;2.90;;;;;;;7.60;100.00;101563.97;5273457;28;20737;-79
2021/12/19 11:33:41;;;;;;;14.98;5.90;;;;;;;7.54;100.00;101566.63;5272737;28;20027;-78
2021/12/19 11:36:11;;;;;;;7.25;2.63;;;;;;;7.53;100.00;101559.72;5268381;28;20442;-78
2021/12/19 11:38:44;;;;;;;13.95;5.57;;;;;;;7.47;100.00;101555.41;5270259;28;20035;-78
2021/12/19 11:41:14;;;;;;;10.93;4.70;;;;;;;7.55;100.00;101553.59;5271649;28;20032;-80
2021/12/19 11:43:46;;;;;;;9.63;4.00;;;;;;;7.37;100.00;101550.28;5270518;28;20035;-78
2021/12/19 11:46:22;;;;;;;6.95;3.00;;;;;;;7.36;100.00;101554.63;5270645;28;20490;-79
2021/12/19 11:49:11;;;;;;;19.02;7.72;;;;;;;7.38;100.00;101555.47;5272729;28;20654;-80
2021/12/19 11:51:41;;;;;;;15.35;6.13;;;;;;;7.40;100.00;101552.88;5260723;27;20032;-79
2021/12/19 11:54:20;;;;;;;16.38;6.45;;;;;;;7.45;100.00;101546.75;5263427;28;20039;-79
2021/12/19 11:57:04;;;;;;;9.45;3.63;;;;;;;7.44;100.00;101534.63;5269454;28;20396;-78
2021/12/19 11:59:38;;;;;;;22.42;7.72;;;;;;;7.48;100.00;101543.25;5266055;28;20058;-79
2021/12/19 12:02:25;;;;;;;11.13;2.72;;;;;;;7.49;100.00;101522.44;5271606;28;20054;-79
2021/12/19 12:05:14;;;;;;;10.35;2.33;;;;;;;7.53;100.00;101529.34;5271780;28;20062;-79
2021/12/19 12:08:09;;;;;;;4.97;1.95;;;;;;;7.62;100.00;101502.41;5269404;28;20047;-79
2021/12/19 12:10:49;;;;;;;7.97;1.60;;;;;;;7.58;100.00;101501.56;5266050;28;20032;-79
2021/12/19 12:13:31;;;;;;;4.00;1.55;;;;;;;7.60;100.00;101499.81;5270242;28;20031;-79
2021/12/19 12:16:21;;;;;;;7.47;1.90;;;;;;;7.63;100.00;101499.78;5269764;28;20462;-78
2021/12/19 12:19:00;;;;;;;5.43;1.30;;;;;;;7.62;100.00;101498.06;5271554;28;20114;-78
2021/12/19 12:21:40;;;;;;;4.63;1.80;;;;;;;7.67;100.00;101485.88;5261019;27;20386;-78
2021/12/19 12:24:13;;;;;;;7.03;1.55;;;;;;;7.67;100.00;101479.81;5283428;22;20040;-79
2021/12/19 12:26:49;;;;;;;7.88;1.98;;;;;;;7.71;100.00;101469.34;5271229;28;20509;-76
2021/12/19 12:29:20;;;;;;;;;;;;;;;7.65;100.00;101472.03;5274436;28;20027;-79
2021/12/19 12:31:52;;;;;;;5.43;1.50;;;;;;;7.62;100.00;101477.25;5274884;28;20034;-78
2021/12/19 12:34:22;;;;;;;3.50;1.30;;;;;;;7.60;100.00;101491.13;5271977;28;20024;-78
2021/12/19 12:36:52;;;;;;;3.58;1.30;;;;;;;7.61;100.00;101479.84;5272539;28;20049;-79
2021/12/19 12:39:27;;;;;;;6.55;1.85;;;;;;;7.54;100.00;101462.59;5265297;28;20039;-79
2021/12/19 12:42:03;;;;;;;4.57;2.10;;;;;;;7.63;100.00;101478.09;5268606;28;20476;-79
2021/12/19 12:44:33;;;;;;;9.00;2.10;;;;;;;7.61;100.00;101467.72;5268277;28;20554;-79
2021/12/19 12:47:05;;;;;;;6.43;2.50;;;;;;;7.57;100.00;101453.03;5272844;28;20035;-79
2021/12/19 12:49:35;;;;;;;5.78;1.73;;;;;;;7.58;100.00;101451.28;5276708;28;20032;-80
2021/12/19 12:52:06;;;;;;;8.48;2.05;;;;;;;7.59;100.00;101446.06;5273287;28;20085;-80
2021/12/19 12:54:38;;;;;;;7.18;1.90;;;;;;;7.59;100.00;101451.28;5276464;28;20085;-80
2021/12/19 12:57:13;;;;;;;8.18;1.88;;;;;;;7.60;100.00;101463.41;5275348;28;20497;-80
2021/12/19 12:59:44;;;;;;;6.97;2.15;;;;;;;7.58;100.00;101448.69;5276281;28;20385;-79
2021/12/19 13:04:48;;;;;;;7.07;2.00;;;;;;;7.61;100.00;101459.03;5273544;28;20023;-78